sensor_id;sensor_type;location;lat;lon;timestamp;temperature;humidity
9215;DHT22;4642;51.364;6.788;2023-01-23T00:01:49;2.50;99.90
9215;DHT22;4642;51.364;6.788;2023-01-23T00:04:15;2.50;99.90
9215;DHT22;4642;51.364;6.788;2023-01-23T00:06:41;2.50;99.90
9215;DHT22;4642;51.364;6.788;2023-01-23T00:09:07;2.50;99.90
9215;DHT22;4642;51.364;6.788;2023-01-23T00:11:33;2.50;99.90
9215;DHT22;4642;51.364;6.788;2023-01-23T00:14:00;2.50;99.90
9215;DHT22;4642;51.364;6.788;2023-01-23T00:16:29;2.50;99.90
9215;DHT22;4642;51.364;6.788;2023-01-23T00:18:55;2.50;99.90
9215;DHT22;4642;51.364;6.788;2023-01-23T00:21:26;2.50;99.90
9215;DHT22;4642;51.364;6.788;2023-01-23T00:23:55;2.50;99.90
9215;DHT22;4642;51.364;6.788;2023-01-23T00:26:26;2.50;99.90
9215;DHT22;4642;51.364;6.788;2023-01-23T00:28:53;2.50;99.90
9215;DHT22;4642;51.364;6.788;2023-01-23T00:31:21;2.50;99.90
9215;DHT22;4642;51.364;6.788;2023-01-23T00:33:47;2.50;99.90
9215;DHT22;4642;51.364;6.788;2023-01-23T00:36:13;2.50;99.90
9215;DHT22;4642;51.364;6.788;2023-01-23T00:38:40;2.50;99.90
9215;DHT22;4642;51.364;6.788;2023-01-23T00:41:06;2.50;99.90
9215;DHT22;4642;51.364;6.788;2023-01-23T00:43:32;2.50;99.90
9215;DHT22;4642;51.364;6.788;2023-01-23T00:45:58;2.50;99.90
9215;DHT22;4642;51.364;6.788;2023-01-23T00:48:24;2.50;99.90
9215;DHT22;4642;51.364;6.788;2023-01-23T00:50:49;2.50;99.90
9215;DHT22;4642;51.364;6.788;2023-01-23T00:53:15;2.50;99.90
9215;DHT22;4642;51.364;6.788;2023-01-23T00:55:41;2.50;99.90
9215;DHT22;4642;51.364;6.788;2023-01-23T00:58:07;2.50;99.90
9215;DHT22;4642;51.364;6.788;2023-01-23T01:00:34;2.50;99.90
9215;DHT22;4642;51.364;6.788;2023-01-23T01:03:00;2.50;99.90
9215;DHT22;4642;51.364;6.788;2023-01-23T01:05:26;2.50;99.90
9215;DHT22;4642;51.364;6.788;2023-01-23T01:07:52;2.50;99.90
9215;DHT22;4642;51.364;6.788;2023-01-23T01:10:17;2.50;99.90
9215;DHT22;4642;51.364;6.788;2023-01-23T01:12:43;2.50;99.90
9215;DHT22;4642;51.364;6.788;2023-01-23T01:15:09;2.50;99.90
9215;DHT22;4642;51.364;6.788;2023-01-23T01:17:35;2.50;99.90
9215;DHT22;4642;51.364;6.788;2023-01-23T01:20:03;2.50;99.90
9215;DHT22;4642;51.364;6.788;2023-01-23T01:22:28;2.50;99.90
9215;DHT22;4642;51.364;6.788;2023-01-23T01:24:54;2.50;99.90
9215;DHT22;4642;51.364;6.788;2023-01-23T01:27:19;2.50;99.90
9215;DHT22;4642;51.364;6.788;2023-01-23T01:29:45;2.50;99.90
9215;DHT22;4642;51.364;6.788;2023-01-23T01:32:10;2.50;99.90
9215;DHT22;4642;51.364;6.788;2023-01-23T01:34:36;2.50;99.90
9215;DHT22;4642;51.364;6.788;2023-01-23T01:37:01;2.50;99.90
9215;DHT22;4642;51.364;6.788;2023-01-23T01:39:27;2.50;99.90
9215;DHT22;4642;51.364;6.788;2023-01-23T01:41:52;2.50;99.90
9215;DHT22;4642;51.364;6.788;2023-01-23T01:44:20;2.50;99.90
9215;DHT22;4642;51.364;6.788;2023-01-23T01:46:45;2.50;99.90
9215;DHT22;4642;51.364;6.788;2023-01-23T01:49:12;2.50;99.90
9215;DHT22;4642;51.364;6.788;2023-01-23T01:54:29;2.60;99.90
9215;DHT22;4642;51.364;6.788;2023-01-23T01:59:34;2.60;99.90
9215;DHT22;4642;51.364;6.788;2023-01-23T02:02:10;2.60;99.90
9215;DHT22;4642;51.364;6.788;2023-01-23T02:04:38;2.50;99.90
9215;DHT22;4642;51.364;6.788;2023-01-23T02:07:10;2.60;99.90
9215;DHT22;4642;51.364;6.788;2023-01-23T02:09:38;2.60;99.90
9215;DHT22;4642;51.364;6.788;2023-01-23T02:12:05;2.50;99.90
9215;DHT22;4642;51.364;6.788;2023-01-23T02:14:31;2.60;99.90
9215;DHT22;4642;51.364;6.788;2023-01-23T02:16:57;2.60;99.90
9215;DHT22;4642;51.364;6.788;2023-01-23T02:19:44;2.60;99.90
9215;DHT22;4642;51.364;6.788;2023-01-23T02:27:54;2.50;99.90
9215;DHT22;4642;51.364;6.788;2023-01-23T02:30:21;2.50;99.90
9215;DHT22;4642;51.364;6.788;2023-01-23T02:32:46;2.60;99.90
9215;DHT22;4642;51.364;6.788;2023-01-23T02:35:20;2.60;99.90
9215;DHT22;4642;51.364;6.788;2023-01-23T02:37:51;2.60;99.90
9215;DHT22;4642;51.364;6.788;2023-01-23T02:40:19;2.60;99.90
9215;DHT22;4642;51.364;6.788;2023-01-23T02:42:47;2.60;99.90
9215;DHT22;4642;51.364;6.788;2023-01-23T02:45:13;2.50;99.90
9215;DHT22;4642;51.364;6.788;2023-01-23T02:47:39;2.60;99.90
9215;DHT22;4642;51.364;6.788;2023-01-23T02:50:04;2.60;99.90
9215;DHT22;4642;51.364;6.788;2023-01-23T02:52:30;2.50;99.90
9215;DHT22;4642;51.364;6.788;2023-01-23T02:54:56;2.50;99.90
9215;DHT22;4642;51.364;6.788;2023-01-23T02:57:21;2.50;99.90
9215;DHT22;4642;51.364;6.788;2023-01-23T02:59:47;2.50;99.90
9215;DHT22;4642;51.364;6.788;2023-01-23T03:02:31;2.50;99.90
9215;DHT22;4642;51.364;6.788;2023-01-23T03:04:56;2.40;99.90
9215;DHT22;4642;51.364;6.788;2023-01-23T03:07:22;2.30;99.90
9215;DHT22;4642;51.364;6.788;2023-01-23T03:09:47;2.30;99.90
9215;DHT22;4642;51.364;6.788;2023-01-23T03:12:14;2.30;99.90
9215;DHT22;4642;51.364;6.788;2023-01-23T03:14:40;2.30;99.90
9215;DHT22;4642;51.364;6.788;2023-01-23T03:17:06;2.20;99.90
9215;DHT22;4642;51.364;6.788;2023-01-23T03:19:32;2.10;99.90
9215;DHT22;4642;51.364;6.788;2023-01-23T03:21:57;2.10;99.90
9215;DHT22;4642;51.364;6.788;2023-01-23T03:24:23;2.00;99.90
9215;DHT22;4642;51.364;6.788;2023-01-23T03:26:49;2.00;99.90
9215;DHT22;4642;51.364;6.788;2023-01-23T03:29:21;1.90;99.90
9215;DHT22;4642;51.364;6.788;2023-01-23T03:32:06;1.80;99.90
9215;DHT22;4642;51.364;6.788;2023-01-23T03:34:32;1.80;99.90
9215;DHT22;4642;51.364;6.788;2023-01-23T03:36:58;1.80;99.90
9215;DHT22;4642;51.364;6.788;2023-01-23T03:39:25;1.80;99.90
9215;DHT22;4642;51.364;6.788;2023-01-23T03:42:09;1.70;99.90
9215;DHT22;4642;51.364;6.788;2023-01-23T03:44:35;1.70;99.90
9215;DHT22;4642;51.364;6.788;2023-01-23T03:47:01;1.80;99.90
9215;DHT22;4642;51.364;6.788;2023-01-23T03:49:27;1.80;99.90
9215;DHT22;4642;51.364;6.788;2023-01-23T03:51:53;1.80;99.90
9215;DHT22;4642;51.364;6.788;2023-01-23T03:54:18;1.70;99.90
9215;DHT22;4642;51.364;6.788;2023-01-23T03:56:44;1.80;99.90
9215;DHT22;4642;51.364;6.788;2023-01-23T03:59:09;1.80;99.90
9215;DHT22;4642;51.364;6.788;2023-01-23T04:01:35;1.80;99.90
9215;DHT22;4642;51.364;6.788;2023-01-23T04:04:01;1.80;99.90
9215;DHT22;4642;51.364;6.788;2023-01-23T04:06:27;1.90;99.90
9215;DHT22;4642;51.364;6.788;2023-01-23T04:08:53;1.90;99.90
9215;DHT22;4642;51.364;6.788;2023-01-23T04:11:19;1.90;99.90
9215;DHT22;4642;51.364;6.788;2023-01-23T04:13:45;1.90;99.90
9215;DHT22;4642;51.364;6.788;2023-01-23T04:16:11;1.90;99.90
9215;DHT22;4642;51.364;6.788;2023-01-23T04:18:37;1.90;99.90
9215;DHT22;4642;51.364;6.788;2023-01-23T04:21:02;1.90;99.90
9215;DHT22;4642;51.364;6.788;2023-01-23T04:23:28;1.90;99.90
9215;DHT22;4642;51.364;6.788;2023-01-23T04:25:53;1.90;99.90
9215;DHT22;4642;51.364;6.788;2023-01-23T04:28:19;1.90;99.90
9215;DHT22;4642;51.364;6.788;2023-01-23T04:30:45;1.90;99.90
9215;DHT22;4642;51.364;6.788;2023-01-23T04:33:11;2.00;99.90
9215;DHT22;4642;51.364;6.788;2023-01-23T04:35:36;2.00;99.90
9215;DHT22;4642;51.364;6.788;2023-01-23T04:38:02;2.00;99.90
9215;DHT22;4642;51.364;6.788;2023-01-23T04:40:27;2.00;99.90
9215;DHT22;4642;51.364;6.788;2023-01-23T04:42:53;2.00;99.90
9215;DHT22;4642;51.364;6.788;2023-01-23T04:45:19;2.10;99.90
9215;DHT22;4642;51.364;6.788;2023-01-23T04:47:45;2.10;99.90
9215;DHT22;4642;51.364;6.788;2023-01-23T04:50:11;2.10;99.90
9215;DHT22;4642;51.364;6.788;2023-01-23T04:52:36;2.00;99.90
9215;DHT22;4642;51.364;6.788;2023-01-23T04:55:02;2.00;99.90
9215;DHT22;4642;51.364;6.788;2023-01-23T04:57:28;2.10;99.90
9215;DHT22;4642;51.364;6.788;2023-01-23T04:59:53;2.10;99.90
9215;DHT22;4642;51.364;6.788;2023-01-23T05:02:19;2.10;99.90
9215;DHT22;4642;51.364;6.788;2023-01-23T05:04:45;2.10;99.90
9215;DHT22;4642;51.364;6.788;2023-01-23T05:07:11;2.20;99.90
9215;DHT22;4642;51.364;6.788;2023-01-23T05:09:38;2.20;99.90
9215;DHT22;4642;51.364;6.788;2023-01-23T05:12:04;2.20;99.90
9215;DHT22;4642;51.364;6.788;2023-01-23T05:14:30;2.20;99.90
9215;DHT22;4642;51.364;6.788;2023-01-23T05:16:55;2.20;99.90
9215;DHT22;4642;51.364;6.788;2023-01-23T05:19:21;2.20;99.90
9215;DHT22;4642;51.364;6.788;2023-01-23T05:21:46;2.20;99.90
9215;DHT22;4642;51.364;6.788;2023-01-23T05:24:12;2.30;99.90
9215;DHT22;4642;51.364;6.788;2023-01-23T05:26:37;2.30;99.90
9215;DHT22;4642;51.364;6.788;2023-01-23T05:29:03;2.30;99.90
9215;DHT22;4642;51.364;6.788;2023-01-23T05:31:29;2.30;99.90
9215;DHT22;4642;51.364;6.788;2023-01-23T05:33:54;2.30;99.90
9215;DHT22;4642;51.364;6.788;2023-01-23T05:36:20;2.30;99.90
9215;DHT22;4642;51.364;6.788;2023-01-23T05:38:45;2.30;99.90
9215;DHT22;4642;51.364;6.788;2023-01-23T05:41:11;2.30;99.90
9215;DHT22;4642;51.364;6.788;2023-01-23T05:43:36;2.30;99.90
9215;DHT22;4642;51.364;6.788;2023-01-23T05:46:02;2.30;99.90
9215;DHT22;4642;51.364;6.788;2023-01-23T05:48:28;2.40;99.90
9215;DHT22;4642;51.364;6.788;2023-01-23T05:50:53;2.40;99.90
9215;DHT22;4642;51.364;6.788;2023-01-23T05:53:19;2.40;99.90
9215;DHT22;4642;51.364;6.788;2023-01-23T05:55:45;2.40;99.90
9215;DHT22;4642;51.364;6.788;2023-01-23T05:58:10;2.40;99.90
9215;DHT22;4642;51.364;6.788;2023-01-23T06:00:36;2.40;99.90
9215;DHT22;4642;51.364;6.788;2023-01-23T06:03:01;2.40;99.90
9215;DHT22;4642;51.364;6.788;2023-01-23T06:05:27;2.40;99.90
9215;DHT22;4642;51.364;6.788;2023-01-23T06:07:52;2.40;99.90
9215;DHT22;4642;51.364;6.788;2023-01-23T06:10:18;2.40;99.90
9215;DHT22;4642;51.364;6.788;2023-01-23T06:12:44;2.40;99.90
9215;DHT22;4642;51.364;6.788;2023-01-23T06:15:10;2.40;99.90
9215;DHT22;4642;51.364;6.788;2023-01-23T06:17:35;2.40;99.90
9215;DHT22;4642;51.364;6.788;2023-01-23T06:20:02;2.50;99.90
9215;DHT22;4642;51.364;6.788;2023-01-23T06:22:28;2.40;99.90
9215;DHT22;4642;51.364;6.788;2023-01-23T06:24:53;2.40;99.90
9215;DHT22;4642;51.364;6.788;2023-01-23T06:27:19;2.40;99.90
9215;DHT22;4642;51.364;6.788;2023-01-23T06:29:44;2.40;99.90
9215;DHT22;4642;51.364;6.788;2023-01-23T06:32:10;2.40;99.90
9215;DHT22;4642;51.364;6.788;2023-01-23T06:34:36;2.30;99.90
9215;DHT22;4642;51.364;6.788;2023-01-23T06:37:02;2.30;99.90
9215;DHT22;4642;51.364;6.788;2023-01-23T06:39:27;2.30;99.90
9215;DHT22;4642;51.364;6.788;2023-01-23T06:41:54;2.30;99.90
9215;DHT22;4642;51.364;6.788;2023-01-23T06:44:20;2.30;99.90
9215;DHT22;4642;51.364;6.788;2023-01-23T06:46:46;2.30;99.90
9215;DHT22;4642;51.364;6.788;2023-01-23T06:49:11;2.30;99.90
9215;DHT22;4642;51.364;6.788;2023-01-23T06:51:37;2.20;99.90
9215;DHT22;4642;51.364;6.788;2023-01-23T06:54:02;2.20;99.90
9215;DHT22;4642;51.364;6.788;2023-01-23T06:56:28;2.20;99.90
9215;DHT22;4642;51.364;6.788;2023-01-23T06:58:53;2.20;99.90
9215;DHT22;4642;51.364;6.788;2023-01-23T07:01:19;2.30;99.90
9215;DHT22;4642;51.364;6.788;2023-01-23T07:03:44;2.30;99.90
9215;DHT22;4642;51.364;6.788;2023-01-23T07:06:11;2.30;99.90
9215;DHT22;4642;51.364;6.788;2023-01-23T07:08:37;2.30;99.90
9215;DHT22;4642;51.364;6.788;2023-01-23T07:11:03;2.30;99.90
9215;DHT22;4642;51.364;6.788;2023-01-23T07:13:29;2.30;99.90
9215;DHT22;4642;51.364;6.788;2023-01-23T07:15:54;2.40;99.90
9215;DHT22;4642;51.364;6.788;2023-01-23T07:18:21;2.40;99.90
9215;DHT22;4642;51.364;6.788;2023-01-23T07:20:46;2.40;99.90
9215;DHT22;4642;51.364;6.788;2023-01-23T07:23:12;2.40;99.90
9215;DHT22;4642;51.364;6.788;2023-01-23T07:25:38;2.40;99.90
9215;DHT22;4642;51.364;6.788;2023-01-23T07:28:04;2.40;99.90
9215;DHT22;4642;51.364;6.788;2023-01-23T07:30:31;2.40;99.90
9215;DHT22;4642;51.364;6.788;2023-01-23T07:32:56;2.40;99.90
9215;DHT22;4642;51.364;6.788;2023-01-23T07:35:25;2.50;99.90
9215;DHT22;4642;51.364;6.788;2023-01-23T07:37:51;2.50;99.90
9215;DHT22;4642;51.364;6.788;2023-01-23T07:40:17;2.50;99.90
9215;DHT22;4642;51.364;6.788;2023-01-23T07:42:43;2.50;99.90
9215;DHT22;4642;51.364;6.788;2023-01-23T07:45:09;2.50;99.90
9215;DHT22;4642;51.364;6.788;2023-01-23T07:47:38;2.50;99.90
9215;DHT22;4642;51.364;6.788;2023-01-23T07:50:09;2.50;99.90
9215;DHT22;4642;51.364;6.788;2023-01-23T07:52:35;2.50;99.90
9215;DHT22;4642;51.364;6.788;2023-01-23T07:55:01;2.60;99.90
9215;DHT22;4642;51.364;6.788;2023-01-23T07:57:27;2.60;99.90
9215;DHT22;4642;51.364;6.788;2023-01-23T07:59:53;2.60;99.90
9215;DHT22;4642;51.364;6.788;2023-01-23T08:02:18;2.60;99.90
9215;DHT22;4642;51.364;6.788;2023-01-23T08:04:44;2.60;99.90
9215;DHT22;4642;51.364;6.788;2023-01-23T08:07:09;2.60;99.90
9215;DHT22;4642;51.364;6.788;2023-01-23T08:09:35;2.70;99.90
9215;DHT22;4642;51.364;6.788;2023-01-23T08:12:00;2.70;99.90
9215;DHT22;4642;51.364;6.788;2023-01-23T08:14:26;2.70;99.90
9215;DHT22;4642;51.364;6.788;2023-01-23T08:16:52;2.70;99.90
9215;DHT22;4642;51.364;6.788;2023-01-23T08:19:18;2.70;99.90
9215;DHT22;4642;51.364;6.788;2023-01-23T08:21:44;2.70;99.90
9215;DHT22;4642;51.364;6.788;2023-01-23T08:24:11;2.70;99.90
9215;DHT22;4642;51.364;6.788;2023-01-23T08:26:37;2.80;99.90
9215;DHT22;4642;51.364;6.788;2023-01-23T08:29:03;2.80;99.90
9215;DHT22;4642;51.364;6.788;2023-01-23T08:31:29;2.80;99.90
9215;DHT22;4642;51.364;6.788;2023-01-23T08:33:55;2.80;99.90
9215;DHT22;4642;51.364;6.788;2023-01-23T08:36:21;2.80;99.90
9215;DHT22;4642;51.364;6.788;2023-01-23T08:38:47;2.80;99.90
9215;DHT22;4642;51.364;6.788;2023-01-23T08:41:13;2.90;99.90
9215;DHT22;4642;51.364;6.788;2023-01-23T08:43:39;2.80;99.90
9215;DHT22;4642;51.364;6.788;2023-01-23T08:46:06;2.90;99.90
9215;DHT22;4642;51.364;6.788;2023-01-23T08:48:32;2.90;99.90
9215;DHT22;4642;51.364;6.788;2023-01-23T08:51:02;2.90;99.90
9215;DHT22;4642;51.364;6.788;2023-01-23T08:53:29;2.90;99.90
9215;DHT22;4642;51.364;6.788;2023-01-23T08:56:01;3.00;99.90
9215;DHT22;4642;51.364;6.788;2023-01-23T08:58:28;2.90;99.90
9215;DHT22;4642;51.364;6.788;2023-01-23T09:00:53;3.00;99.90
9215;DHT22;4642;51.364;6.788;2023-01-23T09:03:19;3.20;99.90
9215;DHT22;4642;51.364;6.788;2023-01-23T09:05:44;3.00;99.90
9215;DHT22;4642;51.364;6.788;2023-01-23T09:08:10;3.00;99.90
9215;DHT22;4642;51.364;6.788;2023-01-23T09:10:36;3.00;99.90
9215;DHT22;4642;51.364;6.788;2023-01-23T09:13:01;3.00;99.90
9215;DHT22;4642;51.364;6.788;2023-01-23T09:15:27;3.10;99.90
9215;DHT22;4642;51.364;6.788;2023-01-23T09:17:53;3.10;99.90
9215;DHT22;4642;51.364;6.788;2023-01-23T09:20:18;3.10;99.90
9215;DHT22;4642;51.364;6.788;2023-01-23T09:22:44;3.10;99.90
9215;DHT22;4642;51.364;6.788;2023-01-23T09:25:10;3.10;99.90
9215;DHT22;4642;51.364;6.788;2023-01-23T09:27:36;3.10;99.90
9215;DHT22;4642;51.364;6.788;2023-01-23T09:30:02;3.20;99.90
9215;DHT22;4642;51.364;6.788;2023-01-23T09:32:27;3.20;99.90
9215;DHT22;4642;51.364;6.788;2023-01-23T09:34:53;3.20;99.90
9215;DHT22;4642;51.364;6.788;2023-01-23T09:37:19;3.20;99.90
9215;DHT22;4642;51.364;6.788;2023-01-23T09:39:44;3.20;99.90
9215;DHT22;4642;51.364;6.788;2023-01-23T09:42:21;3.30;99.90
9215;DHT22;4642;51.364;6.788;2023-01-23T09:44:51;3.30;99.90
9215;DHT22;4642;51.364;6.788;2023-01-23T09:47:39;3.20;99.90
9215;DHT22;4642;51.364;6.788;2023-01-23T09:50:20;3.30;99.90
9215;DHT22;4642;51.364;6.788;2023-01-23T09:52:50;3.30;99.90
9215;DHT22;4642;51.364;6.788;2023-01-23T09:55:46;3.30;99.90
9215;DHT22;4642;51.364;6.788;2023-01-23T09:58:34;3.30;99.90
9215;DHT22;4642;51.364;6.788;2023-01-23T10:01:01;3.30;99.90
9215;DHT22;4642;51.364;6.788;2023-01-23T10:03:29;3.40;99.90
9215;DHT22;4642;51.364;6.788;2023-01-23T10:06:25;3.40;99.90
9215;DHT22;4642;51.364;6.788;2023-01-23T10:11:33;3.40;99.90
9215;DHT22;4642;51.364;6.788;2023-01-23T10:16:59;3.50;99.90
9215;DHT22;4642;51.364;6.788;2023-01-23T10:19:45;3.50;99.90
9215;DHT22;4642;51.364;6.788;2023-01-23T10:22:23;3.50;99.90
9215;DHT22;4642;51.364;6.788;2023-01-23T10:24:57;3.50;99.90
9215;DHT22;4642;51.364;6.788;2023-01-23T10:27:33;3.50;99.90
9215;DHT22;4642;51.364;6.788;2023-01-23T10:32:31;3.60;99.90
9215;DHT22;4642;51.364;6.788;2023-01-23T10:35:19;3.60;99.90
9215;DHT22;4642;51.364;6.788;2023-01-23T10:37:54;3.60;99.90
9215;DHT22;4642;51.364;6.788;2023-01-23T10:40:22;3.60;99.90
9215;DHT22;4642;51.364;6.788;2023-01-23T10:43:18;3.60;99.90
9215;DHT22;4642;51.364;6.788;2023-01-23T10:45:45;3.70;99.90
9215;DHT22;4642;51.364;6.788;2023-01-23T10:48:46;3.70;99.90
9215;DHT22;4642;51.364;6.788;2023-01-23T10:51:31;3.70;99.90
9215;DHT22;4642;51.364;6.788;2023-01-23T10:56:58;3.80;99.90
9215;DHT22;4642;51.364;6.788;2023-01-23T10:59:38;3.80;99.90
9215;DHT22;4642;51.364;6.788;2023-01-23T11:04:37;3.80;99.90
9215;DHT22;4642;51.364;6.788;2023-01-23T11:07:16;3.80;99.90
9215;DHT22;4642;51.364;6.788;2023-01-23T11:12:20;3.90;99.90
9215;DHT22;4642;51.364;6.788;2023-01-23T11:14:46;3.90;99.90
9215;DHT22;4642;51.364;6.788;2023-01-23T11:17:23;3.90;99.90
9215;DHT22;4642;51.364;6.788;2023-01-23T11:19:52;3.90;99.90
9215;DHT22;4642;51.364;6.788;2023-01-23T11:24:48;3.90;99.90
9215;DHT22;4642;51.364;6.788;2023-01-23T11:27:16;3.90;99.90
9215;DHT22;4642;51.364;6.788;2023-01-23T11:32:19;4.00;99.90
9215;DHT22;4642;51.364;6.788;2023-01-23T11:34:49;4.00;99.90
9215;DHT22;4642;51.364;6.788;2023-01-23T11:37:24;3.90;99.90
9215;DHT22;4642;51.364;6.788;2023-01-23T11:39:59;4.00;99.90
9215;DHT22;4642;51.364;6.788;2023-01-23T11:42:27;4.00;99.90
9215;DHT22;4642;51.364;6.788;2023-01-23T11:44:55;4.10;99.90
9215;DHT22;4642;51.364;6.788;2023-01-23T11:47:29;4.10;99.90
9215;DHT22;4642;51.364;6.788;2023-01-23T11:55:42;4.10;99.90
9215;DHT22;4642;51.364;6.788;2023-01-23T11:58:31;4.10;99.90
9215;DHT22;4642;51.364;6.788;2023-01-23T12:04:13;4.10;99.90
9215;DHT22;4642;51.364;6.788;2023-01-23T12:07:12;4.10;99.90
9215;DHT22;4642;51.364;6.788;2023-01-23T12:09:54;4.10;99.90
9215;DHT22;4642;51.364;6.788;2023-01-23T12:12:56;4.10;99.90
9215;DHT22;4642;51.364;6.788;2023-01-23T12:21:24;4.20;99.90
9215;DHT22;4642;51.364;6.788;2023-01-23T12:26:55;4.20;99.90
9215;DHT22;4642;51.364;6.788;2023-01-23T12:29:48;4.20;99.90
9215;DHT22;4642;51.364;6.788;2023-01-23T12:35:15;4.20;99.90
9215;DHT22;4642;51.364;6.788;2023-01-23T12:38:29;4.20;99.90
9215;DHT22;4642;51.364;6.788;2023-01-23T12:41:19;4.20;99.90
9215;DHT22;4642;51.364;6.788;2023-01-23T12:44:09;4.20;99.90
9215;DHT22;4642;51.364;6.788;2023-01-23T12:49:26;4.20;99.90
9215;DHT22;4642;51.364;6.788;2023-01-23T12:52:03;4.20;99.90
9215;DHT22;4642;51.364;6.788;2023-01-23T12:54:36;4.20;99.90
9215;DHT22;4642;51.364;6.788;2023-01-23T12:57:04;4.20;99.90
9215;DHT22;4642;51.364;6.788;2023-01-23T13:02:28;4.10;99.90
9215;DHT22;4642;51.364;6.788;2023-01-23T13:13:30;4.20;99.90
9215;DHT22;4642;51.364;6.788;2023-01-23T13:16:13;4.10;99.90
9215;DHT22;4642;51.364;6.788;2023-01-23T13:18:39;4.10;99.90
9215;DHT22;4642;51.364;6.788;2023-01-23T13:21:33;4.20;99.90
9215;DHT22;4642;51.364;6.788;2023-01-23T13:32:47;4.20;99.90
9215;DHT22;4642;51.364;6.788;2023-01-23T13:49:35;4.10;99.90
9215;DHT22;4642;51.364;6.788;2023-01-23T13:52:26;4.20;99.90
9215;DHT22;4642;51.364;6.788;2023-01-23T13:55:29;4.20;99.90
9215;DHT22;4642;51.364;6.788;2023-01-23T13:58:16;4.10;99.90
9215;DHT22;4642;51.364;6.788;2023-01-23T14:00:49;4.10;99.90
9215;DHT22;4642;51.364;6.788;2023-01-23T14:03:35;4.10;99.90
9215;DHT22;4642;51.364;6.788;2023-01-23T14:06:33;4.10;99.90
9215;DHT22;4642;51.364;6.788;2023-01-23T14:09:00;4.10;99.90
9215;DHT22;4642;51.364;6.788;2023-01-23T14:11:38;4.10;99.90
9215;DHT22;4642;51.364;6.788;2023-01-23T14:14:05;4.10;99.90
9215;DHT22;4642;51.364;6.788;2023-01-23T14:16:56;4.10;99.90
9215;DHT22;4642;51.364;6.788;2023-01-23T14:19:29;4.10;99.90
9215;DHT22;4642;51.364;6.788;2023-01-23T14:22:02;4.10;99.90
9215;DHT22;4642;51.364;6.788;2023-01-23T14:24:49;4.10;99.90
9215;DHT22;4642;51.364;6.788;2023-01-23T14:27:20;4.10;99.90
9215;DHT22;4642;51.364;6.788;2023-01-23T14:30:01;4.10;99.90
9215;DHT22;4642;51.364;6.788;2023-01-23T14:32:29;4.10;99.90
9215;DHT22;4642;51.364;6.788;2023-01-23T14:34:55;4.20;99.90
9215;DHT22;4642;51.364;6.788;2023-01-23T14:37:22;4.10;99.90
9215;DHT22;4642;51.364;6.788;2023-01-23T14:39:48;4.10;99.90
9215;DHT22;4642;51.364;6.788;2023-01-23T14:42:29;4.10;99.90
9215;DHT22;4642;51.364;6.788;2023-01-23T14:44:57;4.10;99.90
9215;DHT22;4642;51.364;6.788;2023-01-23T14:47:36;4.10;99.90
9215;DHT22;4642;51.364;6.788;2023-01-23T14:50:08;4.10;99.90
9215;DHT22;4642;51.364;6.788;2023-01-23T14:52:34;4.10;99.90
9215;DHT22;4642;51.364;6.788;2023-01-23T14:54:59;4.00;99.90
9215;DHT22;4642;51.364;6.788;2023-01-23T14:57:26;4.10;99.90
9215;DHT22;4642;51.364;6.788;2023-01-23T14:59:55;4.00;99.90
9215;DHT22;4642;51.364;6.788;2023-01-23T15:10:23;4.00;99.90
9215;DHT22;4642;51.364;6.788;2023-01-23T15:15:24;3.90;99.90
9215;DHT22;4642;51.364;6.788;2023-01-23T15:17:52;3.90;99.90
9215;DHT22;4642;51.364;6.788;2023-01-23T15:20:37;3.90;99.90
9215;DHT22;4642;51.364;6.788;2023-01-23T15:25:43;3.90;99.90
9215;DHT22;4642;51.364;6.788;2023-01-23T15:28:31;3.90;99.90
9215;DHT22;4642;51.364;6.788;2023-01-23T15:31:02;3.90;99.90
9215;DHT22;4642;51.364;6.788;2023-01-23T15:33:31;3.90;99.90
9215;DHT22;4642;51.364;6.788;2023-01-23T15:36:07;3.90;99.90
9215;DHT22;4642;51.364;6.788;2023-01-23T15:38:34;3.80;99.90
9215;DHT22;4642;51.364;6.788;2023-01-23T15:41:06;3.80;99.90
9215;DHT22;4642;51.364;6.788;2023-01-23T15:43:32;3.80;99.90
9215;DHT22;4642;51.364;6.788;2023-01-23T15:45:57;3.80;99.90
9215;DHT22;4642;51.364;6.788;2023-01-23T15:48:23;3.80;99.90
9215;DHT22;4642;51.364;6.788;2023-01-23T15:50:49;3.80;99.90
9215;DHT22;4642;51.364;6.788;2023-01-23T15:53:14;3.80;99.90
9215;DHT22;4642;51.364;6.788;2023-01-23T15:55:40;3.80;99.90
9215;DHT22;4642;51.364;6.788;2023-01-23T15:58:10;3.70;99.90
9215;DHT22;4642;51.364;6.788;2023-01-23T16:00:37;3.70;99.90
9215;DHT22;4642;51.364;6.788;2023-01-23T16:03:03;3.70;99.90
9215;DHT22;4642;51.364;6.788;2023-01-23T16:05:32;3.70;99.90
9215;DHT22;4642;51.364;6.788;2023-01-23T16:07:59;3.70;99.90
9215;DHT22;4642;51.364;6.788;2023-01-23T16:10:35;3.70;99.90
9215;DHT22;4642;51.364;6.788;2023-01-23T16:13:02;3.60;99.90
9215;DHT22;4642;51.364;6.788;2023-01-23T16:15:30;3.60;99.90
9215;DHT22;4642;51.364;6.788;2023-01-23T16:17:57;3.70;99.90
9215;DHT22;4642;51.364;6.788;2023-01-23T16:23:01;3.60;99.90
9215;DHT22;4642;51.364;6.788;2023-01-23T16:25:32;3.70;99.90
9215;DHT22;4642;51.364;6.788;2023-01-23T16:27:58;3.60;99.90
9215;DHT22;4642;51.364;6.788;2023-01-23T16:30:25;3.60;99.90
9215;DHT22;4642;51.364;6.788;2023-01-23T16:32:52;3.60;99.90
9215;DHT22;4642;51.364;6.788;2023-01-23T16:35:18;3.60;99.90
9215;DHT22;4642;51.364;6.788;2023-01-23T16:37:46;3.60;99.90
9215;DHT22;4642;51.364;6.788;2023-01-23T16:40:27;3.60;99.90
9215;DHT22;4642;51.364;6.788;2023-01-23T16:42:56;3.60;99.90
9215;DHT22;4642;51.364;6.788;2023-01-23T16:45:25;3.60;99.90
9215;DHT22;4642;51.364;6.788;2023-01-23T16:47:51;3.50;99.90
9215;DHT22;4642;51.364;6.788;2023-01-23T16:50:20;3.60;99.90
9215;DHT22;4642;51.364;6.788;2023-01-23T16:52:58;3.60;99.90
9215;DHT22;4642;51.364;6.788;2023-01-23T16:55:28;3.50;99.90
9215;DHT22;4642;51.364;6.788;2023-01-23T16:57:55;3.50;99.90
9215;DHT22;4642;51.364;6.788;2023-01-23T17:00:22;3.50;99.90
9215;DHT22;4642;51.364;6.788;2023-01-23T17:02:50;3.50;99.90
9215;DHT22;4642;51.364;6.788;2023-01-23T17:05:17;3.50;99.90
9215;DHT22;4642;51.364;6.788;2023-01-23T17:07:43;3.50;99.90
9215;DHT22;4642;51.364;6.788;2023-01-23T17:10:20;3.50;99.90
9215;DHT22;4642;51.364;6.788;2023-01-23T17:12:48;3.50;99.90
9215;DHT22;4642;51.364;6.788;2023-01-23T17:15:23;3.40;99.90
9215;DHT22;4642;51.364;6.788;2023-01-23T17:17:52;3.50;99.90
9215;DHT22;4642;51.364;6.788;2023-01-23T17:20:18;3.50;99.90
9215;DHT22;4642;51.364;6.788;2023-01-23T17:22:45;3.40;99.90
9215;DHT22;4642;51.364;6.788;2023-01-23T17:25:19;3.50;99.90
9215;DHT22;4642;51.364;6.788;2023-01-23T17:27:46;3.40;99.90
9215;DHT22;4642;51.364;6.788;2023-01-23T17:30:17;3.40;99.90
9215;DHT22;4642;51.364;6.788;2023-01-23T17:32:45;3.40;99.90
9215;DHT22;4642;51.364;6.788;2023-01-23T17:35:23;3.40;99.90
9215;DHT22;4642;51.364;6.788;2023-01-23T17:37:50;3.40;99.90
9215;DHT22;4642;51.364;6.788;2023-01-23T17:40:16;3.40;99.90
9215;DHT22;4642;51.364;6.788;2023-01-23T17:42:42;3.40;99.90
9215;DHT22;4642;51.364;6.788;2023-01-23T17:45:14;3.40;99.90
9215;DHT22;4642;51.364;6.788;2023-01-23T17:47:42;3.40;99.90
9215;DHT22;4642;51.364;6.788;2023-01-23T17:50:22;3.40;99.90
9215;DHT22;4642;51.364;6.788;2023-01-23T17:52:49;3.40;99.90
9215;DHT22;4642;51.364;6.788;2023-01-23T17:55:17;3.40;99.90
9215;DHT22;4642;51.364;6.788;2023-01-23T17:57:43;3.40;99.90
9215;DHT22;4642;51.364;6.788;2023-01-23T18:00:11;3.40;99.90
9215;DHT22;4642;51.364;6.788;2023-01-23T18:02:38;3.40;99.90
9215;DHT22;4642;51.364;6.788;2023-01-23T18:05:05;3.40;99.90
9215;DHT22;4642;51.364;6.788;2023-01-23T18:07:30;3.40;99.90
9215;DHT22;4642;51.364;6.788;2023-01-23T18:10:04;3.40;99.90
9215;DHT22;4642;51.364;6.788;2023-01-23T18:18:09;3.40;99.90
9215;DHT22;4642;51.364;6.788;2023-01-23T18:20:35;3.30;99.90
9215;DHT22;4642;51.364;6.788;2023-01-23T18:23:01;3.40;99.90